sensor_id;sensor_type;location;lat;lon;timestamp;temperature;humidity
22145;DHT22;11238;48.730;11.566;2023-04-15T00:00:06;6.40;99.90
22145;DHT22;11238;48.730;11.566;2023-04-15T00:02:38;6.50;99.90
22145;DHT22;11238;48.730;11.566;2023-04-15T00:05:05;6.60;99.90
22145;DHT22;11238;48.730;11.566;2023-04-15T00:07:31;6.50;99.90
22145;DHT22;11238;48.730;11.566;2023-04-15T00:09:57;6.60;99.90
22145;DHT22;11238;48.730;11.566;2023-04-15T00:12:27;6.60;99.90
22145;DHT22;11238;48.730;11.566;2023-04-15T00:14:53;6.70;99.90
22145;DHT22;11238;48.730;11.566;2023-04-15T00:17:19;6.60;99.90
22145;DHT22;11238;48.730;11.566;2023-04-15T00:19:46;6.60;99.90
22145;DHT22;11238;48.730;11.566;2023-04-15T00:22:12;6.50;99.90
22145;DHT22;11238;48.730;11.566;2023-04-15T00:24:38;6.50;99.90
22145;DHT22;11238;48.730;11.566;2023-04-15T00:27:03;6.50;99.90
22145;DHT22;11238;48.730;11.566;2023-04-15T00:29:30;6.40;99.90
22145;DHT22;11238;48.730;11.566;2023-04-15T00:31:56;6.40;99.90
22145;DHT22;11238;48.730;11.566;2023-04-15T00:34:23;6.40;99.90
22145;DHT22;11238;48.730;11.566;2023-04-15T00:36:49;6.30;99.90
22145;DHT22;11238;48.730;11.566;2023-04-15T00:39:16;6.20;99.90
22145;DHT22;11238;48.730;11.566;2023-04-15T00:41:43;6.10;99.90
22145;DHT22;11238;48.730;11.566;2023-04-15T00:44:11;6.00;99.90
22145;DHT22;11238;48.730;11.566;2023-04-15T00:46:38;6.00;99.90
22145;DHT22;11238;48.730;11.566;2023-04-15T00:49:05;6.00;99.90
22145;DHT22;11238;48.730;11.566;2023-04-15T00:51:35;6.10;99.90
22145;DHT22;11238;48.730;11.566;2023-04-15T00:54:03;6.10;99.90
22145;DHT22;11238;48.730;11.566;2023-04-15T00:56:29;6.20;99.90
22145;DHT22;11238;48.730;11.566;2023-04-15T00:58:57;6.20;99.90
22145;DHT22;11238;48.730;11.566;2023-04-15T01:01:25;6.30;99.90
22145;DHT22;11238;48.730;11.566;2023-04-15T01:04:12;6.20;99.90
22145;DHT22;11238;48.730;11.566;2023-04-15T01:06:38;6.30;99.90
22145;DHT22;11238;48.730;11.566;2023-04-15T01:09:04;6.30;99.90
22145;DHT22;11238;48.730;11.566;2023-04-15T01:11:31;6.30;99.90
22145;DHT22;11238;48.730;11.566;2023-04-15T01:13:59;6.20;99.90
22145;DHT22;11238;48.730;11.566;2023-04-15T01:16:26;6.20;99.90
22145;DHT22;11238;48.730;11.566;2023-04-15T01:18:53;6.30;99.90
22145;DHT22;11238;48.730;11.566;2023-04-15T01:21:19;6.20;99.90
22145;DHT22;11238;48.730;11.566;2023-04-15T01:23:46;6.10;99.90
22145;DHT22;11238;48.730;11.566;2023-04-15T01:26:13;6.10;99.90
22145;DHT22;11238;48.730;11.566;2023-04-15T01:28:40;6.00;99.90
22145;DHT22;11238;48.730;11.566;2023-04-15T01:31:13;6.10;99.90
22145;DHT22;11238;48.730;11.566;2023-04-15T01:33:40;6.00;99.90
22145;DHT22;11238;48.730;11.566;2023-04-15T01:36:07;6.00;99.90
22145;DHT22;11238;48.730;11.566;2023-04-15T01:38:35;6.10;99.90
22145;DHT22;11238;48.730;11.566;2023-04-15T01:41:01;6.10;99.90
22145;DHT22;11238;48.730;11.566;2023-04-15T01:43:29;6.10;99.90
22145;DHT22;11238;48.730;11.566;2023-04-15T01:45:55;6.10;99.90
22145;DHT22;11238;48.730;11.566;2023-04-15T01:48:22;6.00;99.90
22145;DHT22;11238;48.730;11.566;2023-04-15T01:50:48;6.00;99.90
22145;DHT22;11238;48.730;11.566;2023-04-15T01:53:14;6.00;99.90
22145;DHT22;11238;48.730;11.566;2023-04-15T01:55:40;6.00;99.90
22145;DHT22;11238;48.730;11.566;2023-04-15T01:58:06;6.00;99.90
22145;DHT22;11238;48.730;11.566;2023-04-15T02:00:32;6.00;99.90
22145;DHT22;11238;48.730;11.566;2023-04-15T02:02:59;6.00;99.90
22145;DHT22;11238;48.730;11.566;2023-04-15T02:05:25;6.00;99.90
22145;DHT22;11238;48.730;11.566;2023-04-15T02:07:51;6.10;99.90
22145;DHT22;11238;48.730;11.566;2023-04-15T02:10:17;6.00;99.90
22145;DHT22;11238;48.730;11.566;2023-04-15T02:12:43;5.90;99.90
22145;DHT22;11238;48.730;11.566;2023-04-15T02:15:10;6.00;99.90
22145;DHT22;11238;48.730;11.566;2023-04-15T02:17:36;6.00;99.90
22145;DHT22;11238;48.730;11.566;2023-04-15T02:20:02;5.90;99.90
22145;DHT22;11238;48.730;11.566;2023-04-15T02:22:31;5.90;99.90
22145;DHT22;11238;48.730;11.566;2023-04-15T02:24:56;6.00;99.90
22145;DHT22;11238;48.730;11.566;2023-04-15T02:27:22;6.00;99.90
22145;DHT22;11238;48.730;11.566;2023-04-15T02:29:49;6.00;99.90
22145;DHT22;11238;48.730;11.566;2023-04-15T02:32:17;6.10;99.90
22145;DHT22;11238;48.730;11.566;2023-04-15T02:34:45;6.00;99.90
22145;DHT22;11238;48.730;11.566;2023-04-15T02:37:12;6.10;99.90
22145;DHT22;11238;48.730;11.566;2023-04-15T02:39:38;6.10;99.90
22145;DHT22;11238;48.730;11.566;2023-04-15T02:42:04;6.00;99.90
22145;DHT22;11238;48.730;11.566;2023-04-15T02:44:31;6.00;99.90
22145;DHT22;11238;48.730;11.566;2023-04-15T02:47:01;5.90;99.90
22145;DHT22;11238;48.730;11.566;2023-04-15T02:49:30;5.90;99.90
22145;DHT22;11238;48.730;11.566;2023-04-15T02:51:55;5.80;99.90
22145;DHT22;11238;48.730;11.566;2023-04-15T02:54:25;5.70;99.90
22145;DHT22;11238;48.730;11.566;2023-04-15T02:56:56;5.70;99.90
22145;DHT22;11238;48.730;11.566;2023-04-15T02:59:22;5.70;99.90
22145;DHT22;11238;48.730;11.566;2023-04-15T03:01:48;5.70;99.90
22145;DHT22;11238;48.730;11.566;2023-04-15T03:04:14;5.70;99.90
22145;DHT22;11238;48.730;11.566;2023-04-15T03:06:40;5.70;99.90
22145;DHT22;11238;48.730;11.566;2023-04-15T03:09:07;5.60;99.90
22145;DHT22;11238;48.730;11.566;2023-04-15T03:11:35;5.50;99.90
22145;DHT22;11238;48.730;11.566;2023-04-15T03:14:06;5.50;99.90
22145;DHT22;11238;48.730;11.566;2023-04-15T03:16:35;5.50;99.90
22145;DHT22;11238;48.730;11.566;2023-04-15T03:19:01;5.60;99.90
22145;DHT22;11238;48.730;11.566;2023-04-15T03:21:27;5.50;99.90
22145;DHT22;11238;48.730;11.566;2023-04-15T03:24:14;5.50;99.90
22145;DHT22;11238;48.730;11.566;2023-04-15T03:26:40;5.50;99.90
22145;DHT22;11238;48.730;11.566;2023-04-15T03:29:13;5.50;99.90
22145;DHT22;11238;48.730;11.566;2023-04-15T03:31:39;5.50;99.90
22145;DHT22;11238;48.730;11.566;2023-04-15T03:34:05;5.50;99.90
22145;DHT22;11238;48.730;11.566;2023-04-15T03:36:31;5.40;99.90
22145;DHT22;11238;48.730;11.566;2023-04-15T03:38:59;5.50;99.90
22145;DHT22;11238;48.730;11.566;2023-04-15T03:41:26;5.50;99.90
22145;DHT22;11238;48.730;11.566;2023-04-15T03:43:53;5.50;99.90
22145;DHT22;11238;48.730;11.566;2023-04-15T03:46:19;5.50;99.90
22145;DHT22;11238;48.730;11.566;2023-04-15T03:48:46;5.50;99.90
22145;DHT22;11238;48.730;11.566;2023-04-15T03:51:12;5.60;99.90
22145;DHT22;11238;48.730;11.566;2023-04-15T03:53:38;5.50;99.90
22145;DHT22;11238;48.730;11.566;2023-04-15T03:56:04;5.40;99.90
22145;DHT22;11238;48.730;11.566;2023-04-15T03:58:30;5.40;99.90
22145;DHT22;11238;48.730;11.566;2023-04-15T04:00:56;5.40;99.90
22145;DHT22;11238;48.730;11.566;2023-04-15T04:03:22;5.30;99.90
22145;DHT22;11238;48.730;11.566;2023-04-15T04:05:48;5.30;99.90
22145;DHT22;11238;48.730;11.566;2023-04-15T04:08:14;5.30;99.90
22145;DHT22;11238;48.730;11.566;2023-04-15T04:10:41;5.40;99.90
22145;DHT22;11238;48.730;11.566;2023-04-15T04:13:07;5.40;99.90
22145;DHT22;11238;48.730;11.566;2023-04-15T04:15:33;5.40;99.90
22145;DHT22;11238;48.730;11.566;2023-04-15T04:17:58;5.40;99.90
22145;DHT22;11238;48.730;11.566;2023-04-15T04:20:24;5.50;99.90
22145;DHT22;11238;48.730;11.566;2023-04-15T04:22:50;5.50;99.90
22145;DHT22;11238;48.730;11.566;2023-04-15T04:25:16;5.50;99.90
22145;DHT22;11238;48.730;11.566;2023-04-15T04:27:42;5.60;99.90
22145;DHT22;11238;48.730;11.566;2023-04-15T04:30:08;5.60;99.90
22145;DHT22;11238;48.730;11.566;2023-04-15T04:32:34;5.50;99.90
22145;DHT22;11238;48.730;11.566;2023-04-15T04:35:20;5.60;99.90
22145;DHT22;11238;48.730;11.566;2023-04-15T04:37:46;5.60;99.90
22145;DHT22;11238;48.730;11.566;2023-04-15T04:40:12;5.60;99.90
22145;DHT22;11238;48.730;11.566;2023-04-15T04:42:38;5.60;99.90
22145;DHT22;11238;48.730;11.566;2023-04-15T04:45:04;5.60;99.90
22145;DHT22;11238;48.730;11.566;2023-04-15T04:47:30;5.60;99.90
22145;DHT22;11238;48.730;11.566;2023-04-15T04:49:56;5.60;99.90
22145;DHT22;11238;48.730;11.566;2023-04-15T04:52:44;5.60;99.90
22145;DHT22;11238;48.730;11.566;2023-04-15T04:55:10;5.60;99.90
22145;DHT22;11238;48.730;11.566;2023-04-15T04:57:36;5.60;99.90
22145;DHT22;11238;48.730;11.566;2023-04-15T05:00:05;5.60;99.90
22145;DHT22;11238;48.730;11.566;2023-04-15T05:02:55;5.60;99.90
22145;DHT22;11238;48.730;11.566;2023-04-15T05:05:21;5.70;99.90
22145;DHT22;11238;48.730;11.566;2023-04-15T05:07:47;5.70;99.90
22145;DHT22;11238;48.730;11.566;2023-04-15T05:10:15;5.60;99.90
22145;DHT22;11238;48.730;11.566;2023-04-15T05:12:42;5.60;99.90
22145;DHT22;11238;48.730;11.566;2023-04-15T05:15:09;5.60;99.90
22145;DHT22;11238;48.730;11.566;2023-04-15T05:17:35;5.60;99.90
22145;DHT22;11238;48.730;11.566;2023-04-15T05:20:01;5.60;99.90
22145;DHT22;11238;48.730;11.566;2023-04-15T05:22:28;5.70;99.90
22145;DHT22;11238;48.730;11.566;2023-04-15T05:24:54;5.60;99.90
22145;DHT22;11238;48.730;11.566;2023-04-15T05:27:21;5.60;99.90
22145;DHT22;11238;48.730;11.566;2023-04-15T05:29:48;5.60;99.90
22145;DHT22;11238;48.730;11.566;2023-04-15T05:32:14;5.60;99.90
22145;DHT22;11238;48.730;11.566;2023-04-15T05:34:40;5.60;99.90
22145;DHT22;11238;48.730;11.566;2023-04-15T05:37:06;5.60;99.90
22145;DHT22;11238;48.730;11.566;2023-04-15T05:39:32;5.60;99.90
22145;DHT22;11238;48.730;11.566;2023-04-15T05:42:01;5.70;99.90
22145;DHT22;11238;48.730;11.566;2023-04-15T05:44:26;5.60;99.90
22145;DHT22;11238;48.730;11.566;2023-04-15T05:46:52;5.70;99.90
22145;DHT22;11238;48.730;11.566;2023-04-15T05:49:18;5.80;99.90
22145;DHT22;11238;48.730;11.566;2023-04-15T05:51:44;5.80;99.90
22145;DHT22;11238;48.730;11.566;2023-04-15T05:54:11;5.80;99.90
22145;DHT22;11238;48.730;11.566;2023-04-15T05:56:37;5.80;99.90
22145;DHT22;11238;48.730;11.566;2023-04-15T05:59:03;5.90;99.90
22145;DHT22;11238;48.730;11.566;2023-04-15T06:01:29;5.90;99.90
22145;DHT22;11238;48.730;11.566;2023-04-15T06:03:55;5.90;99.90
22145;DHT22;11238;48.730;11.566;2023-04-15T06:06:21;5.90;99.90
22145;DHT22;11238;48.730;11.566;2023-04-15T06:08:47;5.90;99.90
22145;DHT22;11238;48.730;11.566;2023-04-15T06:11:13;5.90;99.90
22145;DHT22;11238;48.730;11.566;2023-04-15T06:13:38;6.00;99.90
22145;DHT22;11238;48.730;11.566;2023-04-15T06:16:05;6.00;99.90
22145;DHT22;11238;48.730;11.566;2023-04-15T06:18:30;6.00;99.90
22145;DHT22;11238;48.730;11.566;2023-04-15T06:20:56;6.00;99.90
22145;DHT22;11238;48.730;11.566;2023-04-15T06:23:22;6.00;99.90
22145;DHT22;11238;48.730;11.566;2023-04-15T06:25:47;6.00;99.90
22145;DHT22;11238;48.730;11.566;2023-04-15T06:28:15;6.00;99.90
22145;DHT22;11238;48.730;11.566;2023-04-15T06:30:41;6.00;99.90
22145;DHT22;11238;48.730;11.566;2023-04-15T06:33:07;6.00;99.90
22145;DHT22;11238;48.730;11.566;2023-04-15T06:39:21;6.00;99.90
22145;DHT22;11238;48.730;11.566;2023-04-15T06:41:47;6.10;99.90
22145;DHT22;11238;48.730;11.566;2023-04-15T06:44:13;6.10;99.90
22145;DHT22;11238;48.730;11.566;2023-04-15T06:46:39;6.10;99.90
22145;DHT22;11238;48.730;11.566;2023-04-15T06:49:05;6.20;99.90
22145;DHT22;11238;48.730;11.566;2023-04-15T06:51:31;6.20;99.90
22145;DHT22;11238;48.730;11.566;2023-04-15T06:53:57;6.30;99.90
22145;DHT22;11238;48.730;11.566;2023-04-15T06:56:23;6.30;99.90
22145;DHT22;11238;48.730;11.566;2023-04-15T06:58:49;6.30;99.90
22145;DHT22;11238;48.730;11.566;2023-04-15T07:01:15;6.30;99.90
22145;DHT22;11238;48.730;11.566;2023-04-15T07:03:40;6.40;99.90
22145;DHT22;11238;48.730;11.566;2023-04-15T07:06:07;6.40;99.90
22145;DHT22;11238;48.730;11.566;2023-04-15T07:08:34;6.40;99.90
22145;DHT22;11238;48.730;11.566;2023-04-15T07:11:00;6.40;99.90
22145;DHT22;11238;48.730;11.566;2023-04-15T07:13:26;6.40;99.90
22145;DHT22;11238;48.730;11.566;2023-04-15T07:15:52;6.50;99.90
22145;DHT22;11238;48.730;11.566;2023-04-15T07:18:18;6.40;99.90
22145;DHT22;11238;48.730;11.566;2023-04-15T07:20:43;6.50;99.90
22145;DHT22;11238;48.730;11.566;2023-04-15T07:23:09;6.50;99.90
22145;DHT22;11238;48.730;11.566;2023-04-15T07:25:35;6.60;99.90
22145;DHT22;11238;48.730;11.566;2023-04-15T07:28:01;6.60;99.90
22145;DHT22;11238;48.730;11.566;2023-04-15T07:30:27;6.60;99.90
22145;DHT22;11238;48.730;11.566;2023-04-15T07:32:54;6.70;99.90
22145;DHT22;11238;48.730;11.566;2023-04-15T07:35:20;6.80;99.90
22145;DHT22;11238;48.730;11.566;2023-04-15T07:37:47;6.80;99.90
22145;DHT22;11238;48.730;11.566;2023-04-15T07:40:12;6.80;99.90
22145;DHT22;11238;48.730;11.566;2023-04-15T07:42:39;6.90;99.90
22145;DHT22;11238;48.730;11.566;2023-04-15T07:45:06;6.90;99.90
22145;DHT22;11238;48.730;11.566;2023-04-15T07:47:32;7.00;99.90
22145;DHT22;11238;48.730;11.566;2023-04-15T07:49:58;7.00;99.90
22145;DHT22;11238;48.730;11.566;2023-04-15T07:52:24;7.00;99.90
22145;DHT22;11238;48.730;11.566;2023-04-15T07:54:51;7.00;99.90
22145;DHT22;11238;48.730;11.566;2023-04-15T07:57:16;7.00;99.90
22145;DHT22;11238;48.730;11.566;2023-04-15T07:59:42;7.10;99.90
22145;DHT22;11238;48.730;11.566;2023-04-15T08:02:10;7.10;99.90
22145;DHT22;11238;48.730;11.566;2023-04-15T08:04:36;7.10;99.90
22145;DHT22;11238;48.730;11.566;2023-04-15T08:07:02;7.10;99.90
22145;DHT22;11238;48.730;11.566;2023-04-15T08:09:29;7.10;99.90
22145;DHT22;11238;48.730;11.566;2023-04-15T08:11:55;7.10;99.90
22145;DHT22;11238;48.730;11.566;2023-04-15T08:14:21;7.10;99.90
22145;DHT22;11238;48.730;11.566;2023-04-15T08:16:48;7.20;99.90
22145;DHT22;11238;48.730;11.566;2023-04-15T08:19:14;7.20;99.90
22145;DHT22;11238;48.730;11.566;2023-04-15T08:21:40;7.20;99.90
22145;DHT22;11238;48.730;11.566;2023-04-15T08:24:06;7.20;99.90
22145;DHT22;11238;48.730;11.566;2023-04-15T08:26:32;7.20;99.90
22145;DHT22;11238;48.730;11.566;2023-04-15T08:28:58;7.30;99.90
22145;DHT22;11238;48.730;11.566;2023-04-15T08:31:26;7.30;99.90
22145;DHT22;11238;48.730;11.566;2023-04-15T08:33:53;7.40;99.90
22145;DHT22;11238;48.730;11.566;2023-04-15T08:36:21;7.40;99.90
22145;DHT22;11238;48.730;11.566;2023-04-15T08:38:47;7.40;99.90
22145;DHT22;11238;48.730;11.566;2023-04-15T08:41:21;7.50;99.90
22145;DHT22;11238;48.730;11.566;2023-04-15T08:43:56;7.60;99.90
22145;DHT22;11238;48.730;11.566;2023-04-15T08:46:22;7.60;99.90
22145;DHT22;11238;48.730;11.566;2023-04-15T08:48:48;7.70;99.90
22145;DHT22;11238;48.730;11.566;2023-04-15T08:51:16;7.70;99.90
22145;DHT22;11238;48.730;11.566;2023-04-15T08:53:43;7.70;99.90
22145;DHT22;11238;48.730;11.566;2023-04-15T08:56:13;7.80;99.90
22145;DHT22;11238;48.730;11.566;2023-04-15T08:58:39;7.90;99.90
22145;DHT22;11238;48.730;11.566;2023-04-15T09:01:05;7.90;99.90
22145;DHT22;11238;48.730;11.566;2023-04-15T09:03:52;7.90;99.90
22145;DHT22;11238;48.730;11.566;2023-04-15T09:06:22;8.00;99.90
22145;DHT22;11238;48.730;11.566;2023-04-15T09:08:49;8.00;99.90
22145;DHT22;11238;48.730;11.566;2023-04-15T09:11:16;8.00;99.90
22145;DHT22;11238;48.730;11.566;2023-04-15T09:13:42;8.10;99.90
22145;DHT22;11238;48.730;11.566;2023-04-15T09:16:09;8.10;99.90
22145;DHT22;11238;48.730;11.566;2023-04-15T09:18:37;8.10;99.90
22145;DHT22;11238;48.730;11.566;2023-04-15T09:21:04;8.10;99.90
22145;DHT22;11238;48.730;11.566;2023-04-15T09:23:33;8.10;99.90
22145;DHT22;11238;48.730;11.566;2023-04-15T09:26:00;8.10;99.90
22145;DHT22;11238;48.730;11.566;2023-04-15T09:28:28;8.20;99.90
22145;DHT22;11238;48.730;11.566;2023-04-15T09:30:58;8.20;99.90
22145;DHT22;11238;48.730;11.566;2023-04-15T09:33:25;8.30;99.90
22145;DHT22;11238;48.730;11.566;2023-04-15T09:36:00;8.30;99.90
22145;DHT22;11238;48.730;11.566;2023-04-15T09:38:27;8.40;99.90
22145;DHT22;11238;48.730;11.566;2023-04-15T09:40:53;8.40;99.90
22145;DHT22;11238;48.730;11.566;2023-04-15T09:43:19;8.40;99.90
22145;DHT22;11238;48.730;11.566;2023-04-15T09:45:52;8.50;99.90
22145;DHT22;11238;48.730;11.566;2023-04-15T09:48:21;8.40;99.90
22145;DHT22;11238;48.730;11.566;2023-04-15T09:50:48;8.40;99.90
22145;DHT22;11238;48.730;11.566;2023-04-15T09:53:17;8.50;99.90
22145;DHT22;11238;48.730;11.566;2023-04-15T09:55:55;8.50;99.90
22145;DHT22;11238;48.730;11.566;2023-04-15T09:58:26;8.50;99.90
22145;DHT22;11238;48.730;11.566;2023-04-15T10:00:54;8.50;99.90
22145;DHT22;11238;48.730;11.566;2023-04-15T10:03:33;8.50;99.90
22145;DHT22;11238;48.730;11.566;2023-04-15T10:06:02;8.50;99.90
22145;DHT22;11238;48.730;11.566;2023-04-15T10:08:32;8.50;99.90
22145;DHT22;11238;48.730;11.566;2023-04-15T10:11:01;8.50;99.90
22145;DHT22;11238;48.730;11.566;2023-04-15T10:13:29;8.50;99.90
22145;DHT22;11238;48.730;11.566;2023-04-15T10:16:00;8.60;99.90
22145;DHT22;11238;48.730;11.566;2023-04-15T10:18:33;8.60;99.90
22145;DHT22;11238;48.730;11.566;2023-04-15T10:21:00;8.70;99.90
22145;DHT22;11238;48.730;11.566;2023-04-15T10:23:27;8.70;99.90
22145;DHT22;11238;48.730;11.566;2023-04-15T10:25:53;8.80;99.90
22145;DHT22;11238;48.730;11.566;2023-04-15T10:28:20;8.80;99.90
22145;DHT22;11238;48.730;11.566;2023-04-15T10:30:49;8.80;99.90
22145;DHT22;11238;48.730;11.566;2023-04-15T10:33:19;8.80;99.90
22145;DHT22;11238;48.730;11.566;2023-04-15T10:35:50;8.80;99.90
22145;DHT22;11238;48.730;11.566;2023-04-15T10:38:37;8.90;99.90
22145;DHT22;11238;48.730;11.566;2023-04-15T10:41:23;8.90;99.90
22145;DHT22;11238;48.730;11.566;2023-04-15T10:44:00;8.80;99.90
22145;DHT22;11238;48.730;11.566;2023-04-15T10:46:41;8.80;99.90
22145;DHT22;11238;48.730;11.566;2023-04-15T10:49:12;8.80;99.90
22145;DHT22;11238;48.730;11.566;2023-04-15T10:51:39;8.80;99.90
22145;DHT22;11238;48.730;11.566;2023-04-15T10:54:15;8.80;99.90
22145;DHT22;11238;48.730;11.566;2023-04-15T10:56:43;8.80;99.90
22145;DHT22;11238;48.730;11.566;2023-04-15T10:59:09;8.90;99.90
22145;DHT22;11238;48.730;11.566;2023-04-15T11:01:56;8.90;99.90
22145;DHT22;11238;48.730;11.566;2023-04-15T11:04:56;9.00;99.90
22145;DHT22;11238;48.730;11.566;2023-04-15T11:07:53;9.00;99.90
22145;DHT22;11238;48.730;11.566;2023-04-15T11:12:53;9.10;99.90
22145;DHT22;11238;48.730;11.566;2023-04-15T11:15:35;9.00;99.90
22145;DHT22;11238;48.730;11.566;2023-04-15T11:18:09;9.10;99.90
22145;DHT22;11238;48.730;11.566;2023-04-15T11:20:36;9.10;99.90
22145;DHT22;11238;48.730;11.566;2023-04-15T11:23:03;9.10;99.90
22145;DHT22;11238;48.730;11.566;2023-04-15T11:25:30;9.10;99.90
22145;DHT22;11238;48.730;11.566;2023-04-15T11:27:58;9.10;99.90
22145;DHT22;11238;48.730;11.566;2023-04-15T11:30:29;9.10;99.90
22145;DHT22;11238;48.730;11.566;2023-04-15T11:33:00;9.20;99.90
22145;DHT22;11238;48.730;11.566;2023-04-15T11:35:26;9.20;99.90
22145;DHT22;11238;48.730;11.566;2023-04-15T11:37:53;9.20;99.90
22145;DHT22;11238;48.730;11.566;2023-04-15T11:40:24;9.20;99.90
22145;DHT22;11238;48.730;11.566;2023-04-15T11:43:16;9.30;99.90
22145;DHT22;11238;48.730;11.566;2023-04-15T11:45:57;9.30;99.90
22145;DHT22;11238;48.730;11.566;2023-04-15T11:48:28;9.40;99.90
22145;DHT22;11238;48.730;11.566;2023-04-15T11:51:03;9.40;99.90
22145;DHT22;11238;48.730;11.566;2023-04-15T11:56:20;9.30;99.90
22145;DHT22;11238;48.730;11.566;2023-04-15T11:58:47;9.40;99.90
22145;DHT22;11238;48.730;11.566;2023-04-15T12:01:15;9.40;99.90
22145;DHT22;11238;48.730;11.566;2023-04-15T12:03:47;9.40;99.90
22145;DHT22;11238;48.730;11.566;2023-04-15T12:08:48;9.30;99.90
22145;DHT22;11238;48.730;11.566;2023-04-15T12:11:18;9.30;99.90
22145;DHT22;11238;48.730;11.566;2023-04-15T12:13:47;9.20;99.90
22145;DHT22;11238;48.730;11.566;2023-04-15T12:16:18;9.10;99.90
22145;DHT22;11238;48.730;11.566;2023-04-15T12:19:11;9.20;99.90
22145;DHT22;11238;48.730;11.566;2023-04-15T12:21:39;9.10;99.90
22145;DHT22;11238;48.730;11.566;2023-04-15T12:24:08;9.00;99.90
22145;DHT22;11238;48.730;11.566;2023-04-15T12:29:08;9.00;99.90
22145;DHT22;11238;48.730;11.566;2023-04-15T12:31:34;9.00;99.90
22145;DHT22;11238;48.730;11.566;2023-04-15T12:34:02;8.90;99.90
22145;DHT22;11238;48.730;11.566;2023-04-15T12:36:29;8.80;99.90
22145;DHT22;11238;48.730;11.566;2023-04-15T12:39:02;8.80;99.90
22145;DHT22;11238;48.730;11.566;2023-04-15T12:41:28;8.80;99.90
22145;DHT22;11238;48.730;11.566;2023-04-15T12:43:54;8.80;99.90
22145;DHT22;11238;48.730;11.566;2023-04-15T12:46:21;8.80;99.90
22145;DHT22;11238;48.730;11.566;2023-04-15T12:48:49;8.70;99.90
22145;DHT22;11238;48.730;11.566;2023-04-15T12:51:16;8.40;99.90
22145;DHT22;11238;48.730;11.566;2023-04-15T12:53:42;8.50;99.90
22145;DHT22;11238;48.730;11.566;2023-04-15T12:56:28;8.40;99.90
22145;DHT22;11238;48.730;11.566;2023-04-15T12:58:54;8.30;99.90
22145;DHT22;11238;48.730;11.566;2023-04-15T13:01:21;8.30;99.90
22145;DHT22;11238;48.730;11.566;2023-04-15T13:03:47;8.10;99.90
22145;DHT22;11238;48.730;11.566;2023-04-15T13:06:14;8.10;99.90
22145;DHT22;11238;48.730;11.566;2023-04-15T13:08:40;8.10;99.90
22145;DHT22;11238;48.730;11.566;2023-04-15T13:11:06;8.10;99.90
22145;DHT22;11238;48.730;11.566;2023-04-15T13:13:34;8.10;99.90
22145;DHT22;11238;48.730;11.566;2023-04-15T13:16:00;8.00;99.90
22145;DHT22;11238;48.730;11.566;2023-04-15T13:18:26;8.00;99.90
22145;DHT22;11238;48.730;11.566;2023-04-15T13:20:53;8.10;99.90
22145;DHT22;11238;48.730;11.566;2023-04-15T13:23:19;8.10;99.90
22145;DHT22;11238;48.730;11.566;2023-04-15T13:25:45;8.00;99.90
22145;DHT22;11238;48.730;11.566;2023-04-15T13:28:11;8.10;99.90
22145;DHT22;11238;48.730;11.566;2023-04-15T13:30:38;8.00;99.90
22145;DHT22;11238;48.730;11.566;2023-04-15T13:33:05;8.10;99.90
22145;DHT22;11238;48.730;11.566;2023-04-15T13:35:31;8.10;99.90
22145;DHT22;11238;48.730;11.566;2023-04-15T13:37:57;8.10;99.90
22145;DHT22;11238;48.730;11.566;2023-04-15T13:40:23;8.10;99.90
22145;DHT22;11238;48.730;11.566;2023-04-15T13:42:50;8.20;99.90
22145;DHT22;11238;48.730;11.566;2023-04-15T13:45:17;8.10;99.90
22145;DHT22;11238;48.730;11.566;2023-04-15T13:47:43;8.10;99.90
22145;DHT22;11238;48.730;11.566;2023-04-15T13:50:09;8.20;99.90
22145;DHT22;11238;48.730;11.566;2023-04-15T13:52:34;8.20;99.90
22145;DHT22;11238;48.730;11.566;2023-04-15T13:55:01;8.20;99.90
22145;DHT22;11238;48.730;11.566;2023-04-15T13:57:28;8.20;99.90
22145;DHT22;11238;48.730;11.566;2023-04-15T13:59:53;8.20;99.90
22145;DHT22;11238;48.730;11.566;2023-04-15T14:02:20;8.20;99.90
22145;DHT22;11238;48.730;11.566;2023-04-15T14:04:46;8.30;99.90
22145;DHT22;11238;48.730;11.566;2023-04-15T14:07:11;8.10;99.90
22145;DHT22;11238;48.730;11.566;2023-04-15T14:09:37;8.00;99.90
22145;DHT22;11238;48.730;11.566;2023-04-15T14:12:03;8.00;99.90
22145;DHT22;11238;48.730;11.566;2023-04-15T14:14:29;7.90;99.90
22145;DHT22;11238;48.730;11.566;2023-04-15T14:16:55;7.90;99.90
22145;DHT22;11238;48.730;11.566;2023-04-15T14:19:21;7.80;99.90
22145;DHT22;11238;48.730;11.566;2023-04-15T14:21:47;7.90;99.90
22145;DHT22;11238;48.730;11.566;2023-04-15T14:24:13;7.80;99.90
22145;DHT22;11238;48.730;11.566;2023-04-15T14:26:39;7.80;99.90
22145;DHT22;11238;48.730;11.566;2023-04-15T14:29:05;7.80;99.90
22145;DHT22;11238;48.730;11.566;2023-04-15T14:31:31;7.90;99.90
22145;DHT22;11238;48.730;11.566;2023-04-15T14:33:56;7.90;99.90
22145;DHT22;11238;48.730;11.566;2023-04-15T14:36:22;7.90;99.90
22145;DHT22;11238;48.730;11.566;2023-04-15T14:38:49;7.90;99.90
22145;DHT22;11238;48.730;11.566;2023-04-15T14:41:14;7.80;99.90
22145;DHT22;11238;48.730;11.566;2023-04-15T14:43:40;7.90;99.90
22145;DHT22;11238;48.730;11.566;2023-04-15T14:46:06;7.90;99.90
22145;DHT22;11238;48.730;11.566;2023-04-15T14:48:32;7.80;99.90
22145;DHT22;11238;48.730;11.566;2023-04-15T14:50:58;7.80;99.90
22145;DHT22;11238;48.730;11.566;2023-04-15T14:53:26;7.80;99.90
22145;DHT22;11238;48.730;11.566;2023-04-15T14:55:55;7.80;99.90
22145;DHT22;11238;48.730;11.566;2023-04-15T14:58:20;7.80;99.90
22145;DHT22;11238;48.730;11.566;2023-04-15T15:00:46;7.80;99.90
22145;DHT22;11238;48.730;11.566;2023-04-15T15:03:13;7.80;99.90
22145;DHT22;11238;48.730;11.566;2023-04-15T15:06:01;7.80;99.90
22145;DHT22;11238;48.730;11.566;2023-04-15T15:08:27;7.80;99.90
22145;DHT22;11238;48.730;11.566;2023-04-15T15:10:52;7.80;99.90
22145;DHT22;11238;48.730;11.566;2023-04-15T15:13:18;7.80;99.90
22145;DHT22;11238;48.730;11.566;2023-04-15T15:15:44;7.80;99.90
22145;DHT22;11238;48.730;11.566;2023-04-15T15:18:11;7.80;99.90
22145;DHT22;11238;48.730;11.566;2023-04-15T15:20:36;7.80;99.90
22145;DHT22;11238;48.730;11.566;2023-04-15T15:23:03;7.80;99.90
22145;DHT22;11238;48.730;11.566;2023-04-15T15:25:29;7.80;99.90
22145;DHT22;11238;48.730;11.566;2023-04-15T15:27:56;7.80;99.90
22145;DHT22;11238;48.730;11.566;2023-04-15T15:30:25;7.80;99.90
22145;DHT22;11238;48.730;11.566;2023-04-15T15:32:50;7.80;99.90
22145;DHT22;11238;48.730;11.566;2023-04-15T15:35:16;7.80;99.90
22145;DHT22;11238;48.730;11.566;2023-04-15T15:37:44;7.80;99.90
22145;DHT22;11238;48.730;11.566;2023-04-15T15:40:10;7.90;99.90
22145;DHT22;11238;48.730;11.566;2023-04-15T15:42:36;7.90;99.90
22145;DHT22;11238;48.730;11.566;2023-04-15T15:45:03;7.90;99.90
22145;DHT22;11238;48.730;11.566;2023-04-15T15:47:29;7.90;99.90